sensor_id;sensor_type;location;lat;lon;timestamp;temperature;humidity
22436;DHT22;11385;50.822;4.324;2023-05-18T00:01:10;12.10;99.90
22436;DHT22;11385;50.822;4.324;2023-05-18T00:03:39;12.00;99.90
22436;DHT22;11385;50.822;4.324;2023-05-18T00:06:07;12.00;99.90
22436;DHT22;11385;50.822;4.324;2023-05-18T00:08:35;11.90;99.90
22436;DHT22;11385;50.822;4.324;2023-05-18T00:11:03;11.70;99.90
22436;DHT22;11385;50.822;4.324;2023-05-18T00:13:30;11.80;99.90
22436;DHT22;11385;50.822;4.324;2023-05-18T00:15:57;11.70;99.90
22436;DHT22;11385;50.822;4.324;2023-05-18T00:18:24;11.70;99.90
22436;DHT22;11385;50.822;4.324;2023-05-18T00:20:52;11.60;99.90
22436;DHT22;11385;50.822;4.324;2023-05-18T00:23:22;11.80;99.90
22436;DHT22;11385;50.822;4.324;2023-05-18T00:25:50;11.70;99.90
22436;DHT22;11385;50.822;4.324;2023-05-18T00:28:16;11.70;99.90
22436;DHT22;11385;50.822;4.324;2023-05-18T00:30:43;11.60;99.90
22436;DHT22;11385;50.822;4.324;2023-05-18T00:33:09;11.70;99.90
22436;DHT22;11385;50.822;4.324;2023-05-18T00:35:36;11.70;99.90
22436;DHT22;11385;50.822;4.324;2023-05-18T00:38:03;11.60;99.90
22436;DHT22;11385;50.822;4.324;2023-05-18T00:40:30;11.60;99.90
22436;DHT22;11385;50.822;4.324;2023-05-18T00:42:57;11.60;99.90
22436;DHT22;11385;50.822;4.324;2023-05-18T00:45:25;11.50;99.90
22436;DHT22;11385;50.822;4.324;2023-05-18T00:47:52;11.60;99.90
22436;DHT22;11385;50.822;4.324;2023-05-18T00:50:19;11.60;99.90
22436;DHT22;11385;50.822;4.324;2023-05-18T00:52:46;11.40;99.90
22436;DHT22;11385;50.822;4.324;2023-05-18T00:55:13;11.40;99.90
22436;DHT22;11385;50.822;4.324;2023-05-18T00:57:40;11.20;99.90
22436;DHT22;11385;50.822;4.324;2023-05-18T01:00:10;11.00;99.90
22436;DHT22;11385;50.822;4.324;2023-05-18T01:02:39;11.10;99.90
22436;DHT22;11385;50.822;4.324;2023-05-18T01:05:11;11.10;99.90
22436;DHT22;11385;50.822;4.324;2023-05-18T01:07:40;11.10;99.90
22436;DHT22;11385;50.822;4.324;2023-05-18T01:10:09;11.20;99.90
22436;DHT22;11385;50.822;4.324;2023-05-18T01:12:40;11.20;99.90
22436;DHT22;11385;50.822;4.324;2023-05-18T01:15:13;11.10;99.90
22436;DHT22;11385;50.822;4.324;2023-05-18T01:17:52;11.00;99.90
22436;DHT22;11385;50.822;4.324;2023-05-18T01:20:30;10.80;99.90
22436;DHT22;11385;50.822;4.324;2023-05-18T01:23:05;10.80;99.90
22436;DHT22;11385;50.822;4.324;2023-05-18T01:28:21;10.90;99.90
22436;DHT22;11385;50.822;4.324;2023-05-18T01:30:51;10.90;99.90
22436;DHT22;11385;50.822;4.324;2023-05-18T01:33:17;10.80;99.90
22436;DHT22;11385;50.822;4.324;2023-05-18T01:35:44;10.80;99.90
22436;DHT22;11385;50.822;4.324;2023-05-18T01:38:16;10.90;99.90
22436;DHT22;11385;50.822;4.324;2023-05-18T01:43:36;10.80;99.90
22436;DHT22;11385;50.822;4.324;2023-05-18T01:46:27;10.80;99.90
22436;DHT22;11385;50.822;4.324;2023-05-18T01:48:55;10.70;99.90
22436;DHT22;11385;50.822;4.324;2023-05-18T01:51:25;10.60;99.90
22436;DHT22;11385;50.822;4.324;2023-05-18T01:53:56;10.60;99.90
22436;DHT22;11385;50.822;4.324;2023-05-18T01:56:23;10.50;99.90
22436;DHT22;11385;50.822;4.324;2023-05-18T01:58:52;10.40;99.90
22436;DHT22;11385;50.822;4.324;2023-05-18T02:01:19;10.40;99.90
22436;DHT22;11385;50.822;4.324;2023-05-18T02:03:47;10.50;99.90
22436;DHT22;11385;50.822;4.324;2023-05-18T02:06:14;10.60;99.90
22436;DHT22;11385;50.822;4.324;2023-05-18T02:08:41;10.40;99.90
22436;DHT22;11385;50.822;4.324;2023-05-18T02:11:10;10.30;99.90
22436;DHT22;11385;50.822;4.324;2023-05-18T02:13:37;10.30;99.90
22436;DHT22;11385;50.822;4.324;2023-05-18T02:16:04;10.30;99.90
22436;DHT22;11385;50.822;4.324;2023-05-18T02:18:31;10.20;99.90
22436;DHT22;11385;50.822;4.324;2023-05-18T02:20:59;10.20;99.90
22436;DHT22;11385;50.822;4.324;2023-05-18T02:23:26;10.20;99.90
22436;DHT22;11385;50.822;4.324;2023-05-18T02:25:53;10.30;99.90
22436;DHT22;11385;50.822;4.324;2023-05-18T02:28:22;10.20;99.90
22436;DHT22;11385;50.822;4.324;2023-05-18T02:30:48;10.20;99.90
22436;DHT22;11385;50.822;4.324;2023-05-18T02:33:16;10.10;99.90
22436;DHT22;11385;50.822;4.324;2023-05-18T02:35:45;10.10;99.90
22436;DHT22;11385;50.822;4.324;2023-05-18T02:38:12;10.10;99.90
22436;DHT22;11385;50.822;4.324;2023-05-18T02:40:40;10.20;99.90
22436;DHT22;11385;50.822;4.324;2023-05-18T02:43:07;10.20;99.90
22436;DHT22;11385;50.822;4.324;2023-05-18T02:45:34;10.10;99.90
22436;DHT22;11385;50.822;4.324;2023-05-18T02:48:01;10.00;99.90
22436;DHT22;11385;50.822;4.324;2023-05-18T02:50:29;9.90;99.90
22436;DHT22;11385;50.822;4.324;2023-05-18T02:52:56;10.00;99.90
22436;DHT22;11385;50.822;4.324;2023-05-18T02:55:22;9.90;99.90
22436;DHT22;11385;50.822;4.324;2023-05-18T02:57:49;10.00;99.90
22436;DHT22;11385;50.822;4.324;2023-05-18T03:00:18;10.00;99.90
22436;DHT22;11385;50.822;4.324;2023-05-18T03:02:45;10.20;99.90
22436;DHT22;11385;50.822;4.324;2023-05-18T03:05:13;9.90;99.90
22436;DHT22;11385;50.822;4.324;2023-05-18T03:07:41;10.00;99.90
22436;DHT22;11385;50.822;4.324;2023-05-18T03:10:10;9.80;99.90
22436;DHT22;11385;50.822;4.324;2023-05-18T03:12:37;9.90;99.90
22436;DHT22;11385;50.822;4.324;2023-05-18T03:15:04;9.80;99.90
22436;DHT22;11385;50.822;4.324;2023-05-18T03:17:31;9.70;99.90
22436;DHT22;11385;50.822;4.324;2023-05-18T03:19:58;9.70;99.90
22436;DHT22;11385;50.822;4.324;2023-05-18T03:22:27;9.70;99.90
22436;DHT22;11385;50.822;4.324;2023-05-18T03:24:55;9.70;99.90
22436;DHT22;11385;50.822;4.324;2023-05-18T03:27:22;9.50;99.90
22436;DHT22;11385;50.822;4.324;2023-05-18T03:29:52;9.60;99.90
22436;DHT22;11385;50.822;4.324;2023-05-18T03:32:22;9.60;99.90
22436;DHT22;11385;50.822;4.324;2023-05-18T03:34:52;9.70;99.90
22436;DHT22;11385;50.822;4.324;2023-05-18T03:37:19;9.70;99.90
22436;DHT22;11385;50.822;4.324;2023-05-18T03:39:47;9.60;99.90
22436;DHT22;11385;50.822;4.324;2023-05-18T03:42:14;9.60;99.90
22436;DHT22;11385;50.822;4.324;2023-05-18T03:44:41;9.60;99.90
22436;DHT22;11385;50.822;4.324;2023-05-18T03:47:08;9.50;99.90
22436;DHT22;11385;50.822;4.324;2023-05-18T03:49:35;9.50;99.90
22436;DHT22;11385;50.822;4.324;2023-05-18T03:52:03;9.50;99.90
22436;DHT22;11385;50.822;4.324;2023-05-18T03:54:30;9.60;99.90
22436;DHT22;11385;50.822;4.324;2023-05-18T03:56:57;9.60;99.90
22436;DHT22;11385;50.822;4.324;2023-05-18T03:59:24;9.60;99.90
22436;DHT22;11385;50.822;4.324;2023-05-18T04:01:51;9.50;99.90
22436;DHT22;11385;50.822;4.324;2023-05-18T04:04:19;9.50;99.90
22436;DHT22;11385;50.822;4.324;2023-05-18T04:06:48;9.50;99.90
22436;DHT22;11385;50.822;4.324;2023-05-18T04:09:18;9.60;99.90
22436;DHT22;11385;50.822;4.324;2023-05-18T04:11:47;9.60;99.90
22436;DHT22;11385;50.822;4.324;2023-05-18T04:14:14;9.40;99.90
22436;DHT22;11385;50.822;4.324;2023-05-18T04:16:42;9.30;99.90
22436;DHT22;11385;50.822;4.324;2023-05-18T04:19:10;9.40;99.90
22436;DHT22;11385;50.822;4.324;2023-05-18T04:21:38;9.50;99.90
22436;DHT22;11385;50.822;4.324;2023-05-18T04:24:08;9.30;99.90
22436;DHT22;11385;50.822;4.324;2023-05-18T04:26:39;9.40;99.90
22436;DHT22;11385;50.822;4.324;2023-05-18T04:29:06;9.50;99.90
22436;DHT22;11385;50.822;4.324;2023-05-18T04:31:34;9.40;99.90
22436;DHT22;11385;50.822;4.324;2023-05-18T04:34:01;9.50;99.90
22436;DHT22;11385;50.822;4.324;2023-05-18T04:36:30;9.50;99.90
22436;DHT22;11385;50.822;4.324;2023-05-18T04:38:57;9.60;99.90
22436;DHT22;11385;50.822;4.324;2023-05-18T04:41:24;9.60;99.90
22436;DHT22;11385;50.822;4.324;2023-05-18T04:43:52;9.50;99.90
22436;DHT22;11385;50.822;4.324;2023-05-18T04:46:20;9.40;99.90
22436;DHT22;11385;50.822;4.324;2023-05-18T04:48:48;9.40;99.90
22436;DHT22;11385;50.822;4.324;2023-05-18T04:51:16;9.40;99.90
22436;DHT22;11385;50.822;4.324;2023-05-18T04:53:45;9.50;99.90
22436;DHT22;11385;50.822;4.324;2023-05-18T04:56:17;9.60;99.90
22436;DHT22;11385;50.822;4.324;2023-05-18T04:58:46;9.60;99.90
22436;DHT22;11385;50.822;4.324;2023-05-18T05:01:14;9.70;99.90
22436;DHT22;11385;50.822;4.324;2023-05-18T05:03:41;9.70;99.90
22436;DHT22;11385;50.822;4.324;2023-05-18T05:06:10;9.60;99.90
22436;DHT22;11385;50.822;4.324;2023-05-18T05:08:38;9.60;99.90
22436;DHT22;11385;50.822;4.324;2023-05-18T05:11:05;9.70;99.90
22436;DHT22;11385;50.822;4.324;2023-05-18T05:13:32;9.80;99.90
22436;DHT22;11385;50.822;4.324;2023-05-18T05:16:01;9.70;99.90
22436;DHT22;11385;50.822;4.324;2023-05-18T05:18:28;9.70;99.90
22436;DHT22;11385;50.822;4.324;2023-05-18T05:20:54;9.60;99.90
22436;DHT22;11385;50.822;4.324;2023-05-18T05:23:21;9.50;99.90
22436;DHT22;11385;50.822;4.324;2023-05-18T05:25:48;9.30;99.90
22436;DHT22;11385;50.822;4.324;2023-05-18T05:28:15;9.40;99.90
22436;DHT22;11385;50.822;4.324;2023-05-18T05:30:42;9.60;99.90
22436;DHT22;11385;50.822;4.324;2023-05-18T05:33:09;9.60;99.90
22436;DHT22;11385;50.822;4.324;2023-05-18T05:35:36;9.60;99.90
22436;DHT22;11385;50.822;4.324;2023-05-18T05:38:03;9.70;99.90
22436;DHT22;11385;50.822;4.324;2023-05-18T05:40:32;9.80;99.90
22436;DHT22;11385;50.822;4.324;2023-05-18T05:42:58;9.80;99.90
22436;DHT22;11385;50.822;4.324;2023-05-18T05:45:25;9.70;99.90
22436;DHT22;11385;50.822;4.324;2023-05-18T05:47:53;9.70;99.90
22436;DHT22;11385;50.822;4.324;2023-05-18T05:50:20;9.50;99.90
22436;DHT22;11385;50.822;4.324;2023-05-18T05:52:46;9.70;99.90
22436;DHT22;11385;50.822;4.324;2023-05-18T05:55:13;9.80;99.90
22436;DHT22;11385;50.822;4.324;2023-05-18T05:57:40;9.90;99.90
22436;DHT22;11385;50.822;4.324;2023-05-18T06:00:11;9.90;99.90
22436;DHT22;11385;50.822;4.324;2023-05-18T06:02:38;9.80;99.90
22436;DHT22;11385;50.822;4.324;2023-05-18T06:05:06;10.00;99.90
22436;DHT22;11385;50.822;4.324;2023-05-18T06:07:33;9.80;99.90
22436;DHT22;11385;50.822;4.324;2023-05-18T06:10:01;9.90;99.90
22436;DHT22;11385;50.822;4.324;2023-05-18T06:12:28;10.00;99.90
22436;DHT22;11385;50.822;4.324;2023-05-18T06:14:55;10.00;99.90
22436;DHT22;11385;50.822;4.324;2023-05-18T06:17:25;10.10;99.90
22436;DHT22;11385;50.822;4.324;2023-05-18T06:19:52;10.00;99.90
22436;DHT22;11385;50.822;4.324;2023-05-18T06:22:19;9.80;99.90
22436;DHT22;11385;50.822;4.324;2023-05-18T06:24:46;9.80;99.90
22436;DHT22;11385;50.822;4.324;2023-05-18T06:27:13;10.00;99.90
22436;DHT22;11385;50.822;4.324;2023-05-18T06:29:39;10.10;99.90
22436;DHT22;11385;50.822;4.324;2023-05-18T06:32:06;10.40;99.90
22436;DHT22;11385;50.822;4.324;2023-05-18T06:34:33;10.50;99.90
22436;DHT22;11385;50.822;4.324;2023-05-18T06:37:00;10.50;99.90
22436;DHT22;11385;50.822;4.324;2023-05-18T06:39:26;10.50;99.90
22436;DHT22;11385;50.822;4.324;2023-05-18T06:41:54;10.60;99.90
22436;DHT22;11385;50.822;4.324;2023-05-18T06:44:21;10.70;99.90
22436;DHT22;11385;50.822;4.324;2023-05-18T06:46:47;10.70;99.90
22436;DHT22;11385;50.822;4.324;2023-05-18T06:49:14;10.70;99.90
22436;DHT22;11385;50.822;4.324;2023-05-18T06:51:41;10.70;99.90
22436;DHT22;11385;50.822;4.324;2023-05-18T06:54:08;10.70;99.90
22436;DHT22;11385;50.822;4.324;2023-05-18T06:56:35;10.70;99.90
22436;DHT22;11385;50.822;4.324;2023-05-18T06:59:01;10.80;99.90
22436;DHT22;11385;50.822;4.324;2023-05-18T07:01:28;10.80;99.90
22436;DHT22;11385;50.822;4.324;2023-05-18T07:03:55;10.90;99.90
22436;DHT22;11385;50.822;4.324;2023-05-18T07:06:22;10.90;99.90
22436;DHT22;11385;50.822;4.324;2023-05-18T07:08:48;11.00;99.90
22436;DHT22;11385;50.822;4.324;2023-05-18T07:11:15;11.10;99.90
22436;DHT22;11385;50.822;4.324;2023-05-18T07:13:42;11.10;99.90
22436;DHT22;11385;50.822;4.324;2023-05-18T07:16:10;10.90;99.90
22436;DHT22;11385;50.822;4.324;2023-05-18T07:18:37;11.10;99.90
22436;DHT22;11385;50.822;4.324;2023-05-18T07:21:04;10.90;99.90
22436;DHT22;11385;50.822;4.324;2023-05-18T07:23:31;10.90;99.90
22436;DHT22;11385;50.822;4.324;2023-05-18T07:25:57;10.90;99.90
22436;DHT22;11385;50.822;4.324;2023-05-18T07:28:24;11.20;99.90
22436;DHT22;11385;50.822;4.324;2023-05-18T07:30:51;11.30;99.90
22436;DHT22;11385;50.822;4.324;2023-05-18T07:33:17;11.50;99.90
22436;DHT22;11385;50.822;4.324;2023-05-18T07:35:44;11.70;99.90
22436;DHT22;11385;50.822;4.324;2023-05-18T07:38:11;11.80;99.90
22436;DHT22;11385;50.822;4.324;2023-05-18T07:40:38;11.60;99.90
22436;DHT22;11385;50.822;4.324;2023-05-18T07:43:04;11.70;99.90
22436;DHT22;11385;50.822;4.324;2023-05-18T07:45:31;11.60;99.90
22436;DHT22;11385;50.822;4.324;2023-05-18T07:47:58;11.60;99.90
22436;DHT22;11385;50.822;4.324;2023-05-18T07:50:26;11.70;99.90
22436;DHT22;11385;50.822;4.324;2023-05-18T07:52:54;11.80;99.90
22436;DHT22;11385;50.822;4.324;2023-05-18T07:55:21;12.00;99.90
22436;DHT22;11385;50.822;4.324;2023-05-18T07:57:48;12.10;99.90
22436;DHT22;11385;50.822;4.324;2023-05-18T08:00:15;12.10;99.90
22436;DHT22;11385;50.822;4.324;2023-05-18T08:02:43;12.00;99.90
22436;DHT22;11385;50.822;4.324;2023-05-18T08:05:11;11.90;99.90
22436;DHT22;11385;50.822;4.324;2023-05-18T08:07:38;11.90;99.90
22436;DHT22;11385;50.822;4.324;2023-05-18T08:10:05;12.00;99.90
22436;DHT22;11385;50.822;4.324;2023-05-18T08:12:31;12.00;99.90
22436;DHT22;11385;50.822;4.324;2023-05-18T08:14:58;11.90;99.90
22436;DHT22;11385;50.822;4.324;2023-05-18T08:17:26;11.90;99.90
22436;DHT22;11385;50.822;4.324;2023-05-18T08:19:53;12.00;99.90
22436;DHT22;11385;50.822;4.324;2023-05-18T08:22:21;12.00;99.90
22436;DHT22;11385;50.822;4.324;2023-05-18T08:24:48;12.30;99.90
22436;DHT22;11385;50.822;4.324;2023-05-18T08:27:15;12.20;99.90
22436;DHT22;11385;50.822;4.324;2023-05-18T08:29:42;12.00;99.90
22436;DHT22;11385;50.822;4.324;2023-05-18T08:32:09;12.10;99.90
22436;DHT22;11385;50.822;4.324;2023-05-18T08:34:36;12.20;99.90
22436;DHT22;11385;50.822;4.324;2023-05-18T08:37:03;12.60;99.90
22436;DHT22;11385;50.822;4.324;2023-05-18T08:39:29;12.80;99.90
22436;DHT22;11385;50.822;4.324;2023-05-18T08:42:21;12.90;99.90
22436;DHT22;11385;50.822;4.324;2023-05-18T08:44:50;12.90;99.90
22436;DHT22;11385;50.822;4.324;2023-05-18T08:47:19;13.30;99.90
22436;DHT22;11385;50.822;4.324;2023-05-18T08:49:49;13.40;99.90
22436;DHT22;11385;50.822;4.324;2023-05-18T08:52:17;13.70;99.90
22436;DHT22;11385;50.822;4.324;2023-05-18T08:54:45;13.90;99.90
22436;DHT22;11385;50.822;4.324;2023-05-18T08:57:14;14.00;99.90
22436;DHT22;11385;50.822;4.324;2023-05-18T08:59:43;14.10;99.90
22436;DHT22;11385;50.822;4.324;2023-05-18T09:02:10;14.40;99.90
22436;DHT22;11385;50.822;4.324;2023-05-18T09:04:39;14.20;99.90
22436;DHT22;11385;50.822;4.324;2023-05-18T09:07:09;14.50;99.90
22436;DHT22;11385;50.822;4.324;2023-05-18T09:09:37;14.60;99.90
22436;DHT22;11385;50.822;4.324;2023-05-18T09:12:05;14.80;99.90
22436;DHT22;11385;50.822;4.324;2023-05-18T09:14:32;14.90;99.90
22436;DHT22;11385;50.822;4.324;2023-05-18T09:16:59;15.00;99.90
22436;DHT22;11385;50.822;4.324;2023-05-18T09:19:26;15.00;99.90
22436;DHT22;11385;50.822;4.324;2023-05-18T09:21:53;15.30;99.90
22436;DHT22;11385;50.822;4.324;2023-05-18T09:24:20;15.50;99.90
22436;DHT22;11385;50.822;4.324;2023-05-18T09:26:47;15.50;99.90
22436;DHT22;11385;50.822;4.324;2023-05-18T09:29:15;15.60;99.90
22436;DHT22;11385;50.822;4.324;2023-05-18T09:31:43;15.70;99.90
22436;DHT22;11385;50.822;4.324;2023-05-18T09:34:12;15.50;99.90
22436;DHT22;11385;50.822;4.324;2023-05-18T09:36:39;15.50;99.90
22436;DHT22;11385;50.822;4.324;2023-05-18T09:39:08;15.50;99.90
22436;DHT22;11385;50.822;4.324;2023-05-18T09:41:38;15.70;99.90
22436;DHT22;11385;50.822;4.324;2023-05-18T09:44:06;15.60;99.90
22436;DHT22;11385;50.822;4.324;2023-05-18T09:46:35;15.70;99.90
22436;DHT22;11385;50.822;4.324;2023-05-18T09:49:04;15.90;99.90
22436;DHT22;11385;50.822;4.324;2023-05-18T09:51:36;16.10;99.90
22436;DHT22;11385;50.822;4.324;2023-05-18T09:54:05;16.20;99.90
22436;DHT22;11385;50.822;4.324;2023-05-18T09:56:36;16.00;99.90
22436;DHT22;11385;50.822;4.324;2023-05-18T09:59:09;15.90;99.90
22436;DHT22;11385;50.822;4.324;2023-05-18T10:01:45;15.80;99.90
22436;DHT22;11385;50.822;4.324;2023-05-18T10:04:06;16.00;99.90
22436;DHT22;11385;50.822;4.324;2023-05-18T10:06:33;16.40;99.90
22436;DHT22;11385;50.822;4.324;2023-05-18T10:09:01;16.50;99.90
22436;DHT22;11385;50.822;4.324;2023-05-18T10:11:31;16.40;99.90
22436;DHT22;11385;50.822;4.324;2023-05-18T10:13:58;16.70;99.90
22436;DHT22;11385;50.822;4.324;2023-05-18T10:16:25;16.80;99.90
22436;DHT22;11385;50.822;4.324;2023-05-18T10:18:53;16.90;99.90
22436;DHT22;11385;50.822;4.324;2023-05-18T10:21:23;17.00;99.90
22436;DHT22;11385;50.822;4.324;2023-05-18T10:23:51;17.20;99.90
22436;DHT22;11385;50.822;4.324;2023-05-18T10:26:21;17.00;99.90
22436;DHT22;11385;50.822;4.324;2023-05-18T10:28:49;17.10;99.90
22436;DHT22;11385;50.822;4.324;2023-05-18T10:31:17;17.30;99.90
22436;DHT22;11385;50.822;4.324;2023-05-18T10:33:45;17.60;99.90
22436;DHT22;11385;50.822;4.324;2023-05-18T10:36:13;17.80;99.90
22436;DHT22;11385;50.822;4.324;2023-05-18T10:38:42;17.90;99.90
22436;DHT22;11385;50.822;4.324;2023-05-18T10:41:11;17.90;99.90
22436;DHT22;11385;50.822;4.324;2023-05-18T10:43:40;17.70;99.90
22436;DHT22;11385;50.822;4.324;2023-05-18T10:46:07;17.60;99.90
22436;DHT22;11385;50.822;4.324;2023-05-18T10:48:37;17.50;99.90
22436;DHT22;11385;50.822;4.324;2023-05-18T10:51:06;17.10;99.90
22436;DHT22;11385;50.822;4.324;2023-05-18T10:53:33;16.90;99.90
22436;DHT22;11385;50.822;4.324;2023-05-18T10:56:01;16.80;99.90
22436;DHT22;11385;50.822;4.324;2023-05-18T10:58:29;17.00;99.90
22436;DHT22;11385;50.822;4.324;2023-05-18T11:00:58;17.10;99.90
22436;DHT22;11385;50.822;4.324;2023-05-18T11:03:26;16.70;99.90
22436;DHT22;11385;50.822;4.324;2023-05-18T11:06:09;17.20;99.90
22436;DHT22;11385;50.822;4.324;2023-05-18T11:08:42;17.80;99.90
22436;DHT22;11385;50.822;4.324;2023-05-18T11:11:09;18.20;99.90
22436;DHT22;11385;50.822;4.324;2023-05-18T11:13:48;18.40;99.90
22436;DHT22;11385;50.822;4.324;2023-05-18T11:16:15;18.50;99.90
22436;DHT22;11385;50.822;4.324;2023-05-18T11:18:47;18.70;99.90
22436;DHT22;11385;50.822;4.324;2023-05-18T11:21:18;18.60;99.90
22436;DHT22;11385;50.822;4.324;2023-05-18T11:26:27;18.30;99.90
22436;DHT22;11385;50.822;4.324;2023-05-18T11:28:54;18.10;99.90
22436;DHT22;11385;50.822;4.324;2023-05-18T11:31:27;17.90;99.90
22436;DHT22;11385;50.822;4.324;2023-05-18T11:33:52;17.60;99.90
22436;DHT22;11385;50.822;4.324;2023-05-18T11:36:22;17.70;99.90
22436;DHT22;11385;50.822;4.324;2023-05-18T11:38:52;17.50;99.90
22436;DHT22;11385;50.822;4.324;2023-05-18T11:41:28;17.40;99.90
22436;DHT22;11385;50.822;4.324;2023-05-18T11:46:36;17.60;99.90
22436;DHT22;11385;50.822;4.324;2023-05-18T11:49:03;17.70;99.90
22436;DHT22;11385;50.822;4.324;2023-05-18T11:51:34;17.70;99.90
22436;DHT22;11385;50.822;4.324;2023-05-18T11:54:06;17.80;99.90
22436;DHT22;11385;50.822;4.324;2023-05-18T11:56:34;17.60;99.90
22436;DHT22;11385;50.822;4.324;2023-05-18T11:59:09;17.70;99.90
22436;DHT22;11385;50.822;4.324;2023-05-18T12:01:37;17.50;99.90
22436;DHT22;11385;50.822;4.324;2023-05-18T12:04:06;17.40;99.90
22436;DHT22;11385;50.822;4.324;2023-05-18T12:06:36;17.30;99.90
22436;DHT22;11385;50.822;4.324;2023-05-18T12:09:03;17.30;99.90
22436;DHT22;11385;50.822;4.324;2023-05-18T12:11:32;17.40;99.90
22436;DHT22;11385;50.822;4.324;2023-05-18T12:14:00;17.50;99.90
22436;DHT22;11385;50.822;4.324;2023-05-18T12:16:28;17.80;99.90
22436;DHT22;11385;50.822;4.324;2023-05-18T12:18:56;17.40;99.90
22436;DHT22;11385;50.822;4.324;2023-05-18T12:21:22;17.50;99.90
22436;DHT22;11385;50.822;4.324;2023-05-18T12:23:57;17.60;99.90
22436;DHT22;11385;50.822;4.324;2023-05-18T12:26:24;17.60;99.90
22436;DHT22;11385;50.822;4.324;2023-05-18T12:28:55;17.80;99.90
22436;DHT22;11385;50.822;4.324;2023-05-18T12:31:22;17.80;99.90
22436;DHT22;11385;50.822;4.324;2023-05-18T12:33:49;17.80;99.90
22436;DHT22;11385;50.822;4.324;2023-05-18T12:36:16;17.90;99.90
22436;DHT22;11385;50.822;4.324;2023-05-18T12:38:49;18.00;99.90
22436;DHT22;11385;50.822;4.324;2023-05-18T12:41:22;18.40;99.90
22436;DHT22;11385;50.822;4.324;2023-05-18T12:43:49;18.30;99.90
22436;DHT22;11385;50.822;4.324;2023-05-18T12:46:19;18.50;99.90
22436;DHT22;11385;50.822;4.324;2023-05-18T12:48:57;18.70;99.90
22436;DHT22;11385;50.822;4.324;2023-05-18T12:51:24;18.70;99.90
22436;DHT22;11385;50.822;4.324;2023-05-18T12:53:53;18.60;99.90
22436;DHT22;11385;50.822;4.324;2023-05-18T12:56:20;18.70;99.90
22436;DHT22;11385;50.822;4.324;2023-05-18T12:58:57;18.90;99.90
22436;DHT22;11385;50.822;4.324;2023-05-18T13:01:24;19.00;99.90
22436;DHT22;11385;50.822;4.324;2023-05-18T13:03:56;18.40;99.90
22436;DHT22;11385;50.822;4.324;2023-05-18T13:06:24;18.40;99.90
22436;DHT22;11385;50.822;4.324;2023-05-18T13:08:53;18.60;99.90
22436;DHT22;11385;50.822;4.324;2023-05-18T13:11:23;18.90;99.90
22436;DHT22;11385;50.822;4.324;2023-05-18T13:13:58;18.80;99.90
22436;DHT22;11385;50.822;4.324;2023-05-18T13:16:26;18.80;99.90
22436;DHT22;11385;50.822;4.324;2023-05-18T13:18:59;18.70;99.90
22436;DHT22;11385;50.822;4.324;2023-05-18T13:21:26;19.10;99.90
22436;DHT22;11385;50.822;4.324;2023-05-18T13:23:52;19.40;99.90
22436;DHT22;11385;50.822;4.324;2023-05-18T13:26:35;19.20;99.90
22436;DHT22;11385;50.822;4.324;2023-05-18T13:29:02;19.20;99.90
22436;DHT22;11385;50.822;4.324;2023-05-18T13:31:29;19.10;99.90
22436;DHT22;11385;50.822;4.324;2023-05-18T13:33:56;19.00;99.90
22436;DHT22;11385;50.822;4.324;2023-05-18T13:36:24;18.80;99.90
22436;DHT22;11385;50.822;4.324;2023-05-18T13:38:51;18.70;99.90
22436;DHT22;11385;50.822;4.324;2023-05-18T13:41:18;18.90;99.90
22436;DHT22;11385;50.822;4.324;2023-05-18T13:43:46;19.00;99.90
22436;DHT22;11385;50.822;4.324;2023-05-18T13:46:12;19.20;99.90
22436;DHT22;11385;50.822;4.324;2023-05-18T13:48:39;19.30;99.90
22436;DHT22;11385;50.822;4.324;2023-05-18T13:51:06;19.10;99.90
22436;DHT22;11385;50.822;4.324;2023-05-18T13:53:33;19.20;99.90
22436;DHT22;11385;50.822;4.324;2023-05-18T13:55:59;19.50;99.90
22436;DHT22;11385;50.822;4.324;2023-05-18T13:58:26;19.70;99.90
22436;DHT22;11385;50.822;4.324;2023-05-18T14:00:53;19.70;99.90
22436;DHT22;11385;50.822;4.324;2023-05-18T14:03:20;19.80;99.90
22436;DHT22;11385;50.822;4.324;2023-05-18T14:05:47;19.90;99.90
22436;DHT22;11385;50.822;4.324;2023-05-18T14:08:13;19.80;99.90
22436;DHT22;11385;50.822;4.324;2023-05-18T14:10:40;20.00;99.90
22436;DHT22;11385;50.822;4.324;2023-05-18T14:13:07;19.90;99.90
22436;DHT22;11385;50.822;4.324;2023-05-18T14:15:34;20.00;99.90
22436;DHT22;11385;50.822;4.324;2023-05-18T14:18:04;20.40;99.90
22436;DHT22;11385;50.822;4.324;2023-05-18T14:20:31;20.30;99.90
22436;DHT22;11385;50.822;4.324;2023-05-18T14:22:58;20.40;99.90
22436;DHT22;11385;50.822;4.324;2023-05-18T14:25:25;20.60;99.90
22436;DHT22;11385;50.822;4.324;2023-05-18T14:27:52;20.40;99.90
22436;DHT22;11385;50.822;4.324;2023-05-18T14:30:19;20.50;99.90
22436;DHT22;11385;50.822;4.324;2023-05-18T14:32:45;20.60;99.90
22436;DHT22;11385;50.822;4.324;2023-05-18T14:35:12;20.50;99.90
22436;DHT22;11385;50.822;4.324;2023-05-18T14:37:39;20.20;99.90
22436;DHT22;11385;50.822;4.324;2023-05-18T14:40:06;20.40;99.90
22436;DHT22;11385;50.822;4.324;2023-05-18T14:42:33;20.20;99.90
22436;DHT22;11385;50.822;4.324;2023-05-18T14:45:02;20.00;99.90
22436;DHT22;11385;50.822;4.324;2023-05-18T14:47:28;19.60;99.90
22436;DHT22;11385;50.822;4.324;2023-05-18T14:49:55;20.00;99.90
22436;DHT22;11385;50.822;4.324;2023-05-18T14:52:22;20.10;99.90
22436;DHT22;11385;50.822;4.324;2023-05-18T14:54:49;20.10;99.90
22436;DHT22;11385;50.822;4.324;2023-05-18T14:57:34;20.10;99.90
22436;DHT22;11385;50.822;4.324;2023-05-18T15:00:00;20.10;99.90
22436;DHT22;11385;50.822;4.324;2023-05-18T15:02:27;20.10;99.90
22436;DHT22;11385;50.822;4.324;2023-05-18T15:04:54;20.20;99.90
22436;DHT22;11385;50.822;4.324;2023-05-18T15:07:21;20.40;99.90
22436;DHT22;11385;50.822;4.324;2023-05-18T15:09:48;20.50;99.90
22436;DHT22;11385;50.822;4.324;2023-05-18T15:12:15;20.60;99.90
22436;DHT22;11385;50.822;4.324;2023-05-18T15:14:42;20.60;99.90
22436;DHT22;11385;50.822;4.324;2023-05-18T15:17:09;20.40;99.90
22436;DHT22;11385;50.822;4.324;2023-05-18T15:19:36;20.60;99.90
22436;DHT22;11385;50.822;4.324;2023-05-18T15:22:04;20.50;99.90
22436;DHT22;11385;50.822;4.324;2023-05-18T15:24:31;20.30;99.90
22436;DHT22;11385;50.822;4.324;2023-05-18T15:26:58;20.20;99.90
22436;DHT22;11385;50.822;4.324;2023-05-18T15:29:25;20.10;99.90
22436;DHT22;11385;50.822;4.324;2023-05-18T15:31:52;20.30;99.90
22436;DHT22;11385;50.822;4.324;2023-05-18T15:34:21;20.30;99.90
22436;DHT22;11385;50.822;4.324;2023-05-18T15:36:48;20.30;99.90
22436;DHT22;11385;50.822;4.324;2023-05-18T15:39:15;20.40;99.90
22436;DHT22;11385;50.822;4.324;2023-05-18T15:41:46;20.60;99.90
22436;DHT22;11385;50.822;4.324;2023-05-18T15:44:13;20.60;99.90
22436;DHT22;11385;50.822;4.324;2023-05-18T15:46:41;20.70;99.90
22436;DHT22;11385;50.822;4.324;2023-05-18T15:49:07;20.70;99.90
22436;DHT22;11385;50.822;4.324;2023-05-18T15:51:38;20.80;99.90